Providence, Kentucky
Current Conditions -  °F | °C
As of 3:15 AM on Sunday 21 Dec 2014 (Local Time) from K5M9 Reporting Station
Clear Clear  
Wind Chill: 27°   Ceiling: Unl
Heat Index: 27°   Visibility: 7mi
Dew Point: 24°   Wind: 3mph
Humidity: 90%   Direction: 90°E
Pressure: 30.26"   Gusts: NA
Location:  37.4°N, 87.76°W
Report Text: K5M9 210915Z AUTO 09003KT 7SM CLR M03/M04 A3026 RMK AO2 T10291043
Loading
Personal Weather Stations






























Interactive Weather Map New forecast layout! Learn more

10-Day Weather Forecast

Advertisements
Track Severe Weather on mobile